Sunday, September 23, 2018, 4:41 AM GMT
Back to Local

CXMY, Malay Falls , N. S.

Location: , , Canada Lat: 44.983
Local Time: 4:41 AM GMT ( 4:41 GMT) Lon: -62.483
Time Zone: GMT Elev: 131 ft

Show me the last for .
Show Coded

Time T Td Feel RH Dir Speed Gust Alt SLP Vis Weather Sky Remarks
2018-09-23 04:00 40 39 - 97 - - - - - 0 None
2018-09-23 03:00 41 40 - 97 - - - - - 0 None
2018-09-23 02:00 43 41 - 94 - - - - - 0 None
2018-09-23 01:00 44 42 - 95 - - - - - 0 None
2018-09-23 00:00 51 44 - 74 - - - - - 0 None
2018-09-22 23:00 54 44 - 67 - - - - - 0 None
2018-09-22 22:00 59 42 - 53 - - - - - 0 None
2018-09-22 21:00 63 42 - 46 - - - - - 0 None
2018-09-22 20:00 67 52 - 58 - - - - - 0 None
2018-09-22 19:00 69 58 - 67 - - - - - 0 None
2018-09-22 18:00 70 55 76 59 - - - - - 0 None
2018-09-22 17:00 74 64 77 71 - - - - - 0 None
2018-09-22 16:00 70 66 - 88 - - - - - 0 None
2018-09-22 15:00 66 65 - 97 - - - - - 0 None
2018-09-22 14:00 65 64 - 97 - - - - - 0 None
2018-09-22 13:00 65 64 - 97 - - - - - 0 None
2018-09-22 12:00 64 63 - 96 - - - - - 0 None
2018-09-22 11:00 64 62 - 95 - - - - - 0 None
2018-09-22 10:00 65 61 - 86 - - - - - 0 None
2018-09-22 09:00 64 59 - 84 - - - - - 0 None
2018-09-22 08:00 64 58 - 81 - - - - - 0 None
2018-09-22 07:00 63 56 - 78 - - - - - 0 None
2018-09-22 06:00 63 56 - 77 - - - - - 0 None
2018-09-22 05:00 62 55 - 76 - - - - - 0 None

Support USWX by starting your Amazon purchase here.